Domov               UVHVVR             MKGP            O straneh              
ZDRAVSTVENO VARSTVO RASTLIN
  MREŽA AGROMET. POSTAJ
 ► PROGNOSTIČNA OBVESTILA
AGROMETEOROLOŠKI PODATKI -
ARSO
OBVLADOVANJE TVEGANJ ZARADI
NEUGODNIH VREMENSKIH RAZMER
  ► NARAVNE NESREČE
  ► SUŠA/MOČA
  ► NAMAKANJE
  ► ŽLED (gozdarstvo)
KARTOGRAFSKI PRIKAZI
SPLETNE POVEZAVE
PROJEKTI IN PUBLIKACIJE

AGROMETEOROLOŠKA MREŽA: VREMENSKE POSTAJE IN FENOLOŠKA OPAZOVANJA

Pregled podatkov za lokacijo Črnomelj, meteorološka postaja 859096

Pregled senzorjev na lokaciji

ID Ime Zadnja
vrednost
Datum
zadnje
spremembe
Tip
senzorja
4080 Temperatura 2 m ( °C) 13,27 °C 17.10.2017 23:45 50YA
4081 Relativna vlaga 2 m (% RH) 87,75 % RH 17.10.2017 23:45 50YA
4082 Omočenost lista (U) 0 U 17.10.2017 23:45 A730WET
4083 Padavine 0.2 mm (mm) 0 mm 17.10.2017 23:45 Rain-O-Matic

Pregled podatkov zadnjih 24 ur

Zap.
št.
Datum in čas Črnomelj
Omočenost
lista
Padavine
0.2
mm
Relativna
vlaga
2
m
Temperatura
2
m
0 17.10.2017 23:00 0 0 87,75 13,27
1 17.10.2017 22:30 0 0 89,26 13,03
2 17.10.2017 22:00 0 0 87,69 13,45
3 17.10.2017 21:30 0 0 85,95 13,85
4 17.10.2017 21:00 0 0 86,79 13,89
5 17.10.2017 20:30 0 0 86,69 14,3
6 17.10.2017 20:00 0 0 86,26 14,75
7 17.10.2017 19:30 0 0 86,88 14,9
8 17.10.2017 19:00 0 0 86,67 15,11
9 17.10.2017 18:30 0 0 86,4 15,28
10 17.10.2017 18:00 0 0 85,41 15,7
11 17.10.2017 17:30 0 0 85,12 16,13
12 17.10.2017 17:00 0 0 83,27 16,67
13 17.10.2017 16:30 0 0 79,27 18,27
14 17.10.2017 16:00 0 0 70,3 19,91
15 17.10.2017 15:30 0 0 64,24 20,67
16 17.10.2017 15:00 0 0 61,74 21,14
17 17.10.2017 14:30 0 0 59,08 21,46
18 17.10.2017 14:00 0 0 56,91 22,16
19 17.10.2017 13:30 0 0 57,83 22,11
20 17.10.2017 13:00 0 0 55,58 22,29
21 17.10.2017 12:30 0 0 54,22 22,89
22 17.10.2017 12:00 0 0 55,66 22,1
23 17.10.2017 11:30 0 0 59,61 21,28
24 17.10.2017 11:00 0 0 62,17 20,15
25 17.10.2017 10:30 0 0 68,04 18,55
26 17.10.2017 10:00 5,5 0 71,33 16,92
27 17.10.2017 09:30 10 0 74,99 15,77
28 17.10.2017 09:00 10 0 83,25 13,22
29 17.10.2017 08:30 10 0 87,01 11,92
30 17.10.2017 08:00 10 0 92,96 11,11
31 17.10.2017 07:30 10 0 97,85 9,42
32 17.10.2017 07:00 10 0 97,95 9,84
33 17.10.2017 06:30 10 0 98,4 8,82
34 17.10.2017 06:00 10 0 98,13 9,2
35 17.10.2017 05:30 10 0 98,01 9,18
36 17.10.2017 05:00 10 0 97,71 9,36
37 17.10.2017 04:30 9 0 97,46 9,92
38 17.10.2017 04:00 6 0 97,4 9,86
39 17.10.2017 03:30 3 0 97,15 10,07
40 17.10.2017 03:00 1 0 96,73 10,45
41 17.10.2017 02:30 1 0 96,28 10,64
42 17.10.2017 02:00 1 0 95,36 11,03
43 17.10.2017 01:30 1 0 94,81 11,44
44 17.10.2017 01:00 1 0 95,56 11,74
45 17.10.2017 00:30 1 0 93,15 12,04
© 2011 Ministrstvo za kmetijstvo, gozdarstvo in prehrano. Vse pravice pridržane.